LTFJ

Istanbul/Sabiha Gökçen International Airport

Airport
ICAO code
LTFJ
IATA Code
SAW
Summary
ICAO Region
EUR
ICAO Territory
Location

Sanayi, Istanbul

Serving
Istanbul
Elevation
312 ft
Coordinates
40° 54' 19" N , 29° 19' 1" E
KCC
Metar
Observation
LTFJ 311950Z VRB03KT 9999 FEW015 BKN040 04/01 Q1013 NOSIG
Station
Istanbul / Sabiha Gokcen
Date/Time
2023-01-31 19:50:00
Wind speed
03 kts
Lowest cloud amount
few clouds
Temperature
4°C
Dew point
1°C
Humidity
80%
QNH
1013 hPa
Weather condition
n/a

Runways

Designator Length Width Surface Rops
6/24 3000 45 CON Yes/Yes

Airport map

Aerial View

SKYbrary Partners:

Safety knowledge contributed by: